Time;durP1;ratioP1;P1;durP2;ratioP2;P2;SDS_P1;SDS_P2;PMS_P1;PMS_P2;Temp;Humidity;BMP_temperature;BMP_pressure;BME280_temperature;BME280_humidity;BME280_pressure;Samples;Min_cycle;Max_cycle;Signal;HPM_P1;HPM_P2
2023/05/21 00:01:09;;;;;;;2.72;0.95;;;14.30;59.70;;;;;;4959277;28;20461;-67
2023/05/21 00:03:40;;;;;;;2.30;1.05;;;14.30;59.70;;;;;;4948233;28;20039;-70
2023/05/21 00:06:07;;;;;;;1.48;0.80;;;14.40;59.80;;;;;;4938981;28;20058;-69
2023/05/21 00:58:26;;;;;;;4.43;0.40;;;15.00;57.50;;;;;;4925805;28;20050;-68
2023/05/21 01:00:56;;;;;;;12.32;0.82;;;15.10;57.30;;;;;;4927935;29;20042;-68
2023/05/21 01:03:23;;;;;;;;;;;15.10;57.00;;;;;;4942071;28;20046;-67
2023/05/21 01:05:52;;;;;;;3.67;0.60;;;15.20;57.20;;;;;;4942606;29;19997;-68
2023/05/21 01:08:20;;;;;;;2.72;0.65;;;15.20;56.90;;;;;;4935368;29;20126;-68
2023/05/21 01:10:50;;;;;;;3.22;0.95;;;15.20;56.90;;;;;;4940684;29;20043;-66
2023/05/21 01:13:19;;;;;;;10.88;0.98;;;15.30;56.80;;;;;;4950181;28;20040;-68
2023/05/21 01:15:46;;;;;;;4.60;0.80;;;15.30;56.70;;;;;;4942208;28;20036;-67
2023/05/21 01:18:14;;;;;;;1.30;0.43;;;15.40;56.70;;;;;;4948523;28;20467;-67
2023/05/21 01:20:47;;;;;;;2.13;0.50;;;15.40;56.80;;;;;;4948883;29;20040;-67
2023/05/21 01:23:17;;;;;;;3.17;0.47;;;15.40;56.70;;;;;;4951060;28;20038;-67
2023/05/21 01:25:45;;;;;;;2.80;0.80;;;15.40;56.40;;;;;;4948170;29;20035;-67
2023/05/21 01:28:13;;;;;;;1.98;0.70;;;15.40;56.50;;;;;;4933173;29;20130;-68
2023/05/21 01:30:41;;;;;;;1.77;0.50;;;15.50;56.70;;;;;;4916012;29;20047;-67
2023/05/21 01:33:25;;;;;;;1.70;0.30;;;15.50;56.20;;;;;;4920881;29;20091;-67
2023/05/21 01:36:14;;;;;;;1.00;0.47;;;15.50;56.40;;;;;;4934757;29;20039;-67
2023/05/21 01:39:01;;;;;;;1.65;0.40;;;15.60;56.60;;;;;;4934405;29;20509;-68
2023/05/21 01:41:29;;;;;;;0.80;0.40;;;15.60;56.20;;;;;;4953277;28;20032;-66
2023/05/21 01:43:57;;;;;;;6.20;0.85;;;15.50;56.30;;;;;;4945720;28;20051;-67
2023/05/21 01:46:26;;;;;;;2.15;0.52;;;15.60;56.40;;;;;;4930545;28;20098;-66
2023/05/21 01:48:54;;;;;;;0.65;0.40;;;15.60;56.60;;;;;;4950468;28;20381;-65
2023/05/21 01:51:21;;;;;;;1.95;0.40;;;15.60;56.70;;;;;;4916951;29;20047;-66
2023/05/21 01:53:49;;;;;;;0.55;0.40;;;15.70;56.70;;;;;;4934066;29;20732;-65
2023/05/21 02:31:00;;;;;;;0.57;0.28;;;16.00;55.80;;;;;;4946152;28;20113;-68
2023/05/21 02:33:27;;;;;;;0.60;0.60;;;16.00;55.90;;;;;;4949662;29;20078;-68
2023/05/21 02:35:54;;;;;;;0.88;0.50;;;16.00;56.30;;;;;;4951370;29;20119;-67
2023/05/21 02:38:24;;;;;;;0.77;0.60;;;16.00;56.60;;;;;;4966005;28;20378;-68
2023/05/21 02:40:52;;;;;;;0.47;0.47;;;16.00;56.40;;;;;;4951345;29;20039;-68
2023/05/21 02:43:19;;;;;;;1.35;0.20;;;16.00;56.40;;;;;;4934118;29;20058;-67
2023/05/21 02:45:47;;;;;;;1.75;0.40;;;16.10;56.30;;;;;;4966925;28;20532;-67
2023/05/21 02:48:14;;;;;;;2.05;0.50;;;16.20;55.90;;;;;;4950881;28;20039;-67
2023/05/21 02:50:41;;;;;;;0.95;0.30;;;16.10;56.20;;;;;;4950801;29;20055;-67
2023/05/21 02:53:09;;;;;;;2.13;0.43;;;16.10;56.90;;;;;;4928725;29;20028;-67
2023/05/21 02:55:36;;;;;;;2.08;0.40;;;16.20;56.80;;;;;;4961850;28;20039;-66
2023/05/21 02:58:04;;;;;;;1.00;0.28;;;16.20;56.60;;;;;;4963492;28;20031;-66
2023/05/21 03:00:31;;;;;;;1.95;0.40;;;16.30;56.60;;;;;;4954899;29;20039;-67
2023/05/21 03:02:59;;;;;;;2.30;0.40;;;16.30;56.60;;;;;;4965747;28;20043;-67
2023/05/21 03:05:26;;;;;;;6.35;0.60;;;16.40;56.50;;;;;;4958282;28;20043;-67
2023/05/21 03:07:54;;;;;;;1.58;0.22;;;16.40;56.10;;;;;;4974154;28;20038;-67
2023/05/21 03:10:21;;;;;;;24.60;1.90;;;16.40;55.20;;;;;;4974039;28;20114;-68
2023/05/21 03:12:48;;;;;;;26.23;1.50;;;16.50;54.90;;;;;;4969301;28;20039;-67
2023/05/21 03:15:16;;;;;;;13.35;0.95;;;16.70;54.10;;;;;;4974181;28;20027;-67
2023/05/21 03:17:44;;;;;;;3.85;0.73;;;16.70;53.90;;;;;;4973977;28;20097;-67
2023/05/21 03:20:17;;;;;;;2.45;0.50;;;16.70;53.90;;;;;;4974284;28;20296;-66
2023/05/21 03:22:47;;;;;;;1.65;0.32;;;16.70;54.00;;;;;;4972022;28;20370;-66
2023/05/21 03:25:14;;;;;;;2.13;0.50;;;16.70;53.80;;;;;;4935328;28;20036;-67
2023/05/21 03:27:42;;;;;;;22.77;1.83;;;16.60;54.00;;;;;;4954862;28;20351;-69
2023/05/21 03:30:09;;;;;;;7.35;0.73;;;16.70;53.80;;;;;;4945557;28;20044;-68
2023/05/21 03:32:37;;;;;;;4.65;0.60;;;16.70;53.60;;;;;;4934809;29;20075;-68
2023/05/21 03:35:05;;;;;;;9.55;0.68;;;16.70;52.90;;;;;;4930684;29;20035;-68
2023/05/21 03:37:32;;;;;;;8.80;0.50;;;16.70;52.90;;;;;;4918072;29;20036;-68
2023/05/21 03:40:00;;;;;;;2.38;0.55;;;16.60;53.70;;;;;;4971189;28;20489;-68
2023/05/21 03:42:27;;;;;;;42.58;3.53;;;16.70;53.10;;;;;;4973269;28;20058;-69
2023/05/21 03:44:55;;;;;;;4.45;0.82;;;16.80;52.20;;;;;;4954196;28;20046;-68
2023/05/21 03:47:22;;;;;;;1.67;0.55;;;16.70;52.40;;;;;;4954649;28;20031;-71
2023/05/21 03:49:50;;;;;;;7.80;0.98;;;16.60;52.90;;;;;;4937909;29;20051;-68
2023/05/21 03:52:17;;;;;;;12.88;1.30;;;16.70;52.40;;;;;;4937487;29;20038;-67
2023/05/21 03:54:45;;;;;;;8.88;0.80;;;16.70;52.00;;;;;;4957205;28;20113;-68
2023/05/21 03:57:12;;;;;;;9.70;1.35;;;16.70;51.90;;;;;;4973655;28;20097;-67
2023/05/21 05:33:12;;;;;;;1.13;0.47;;;16.30;54.80;;;;;;4945873;28;20056;-67
2023/05/21 05:35:39;;;;;;;1.52;0.32;;;16.30;55.30;;;;;;4953158;28;20420;-68
2023/05/21 05:38:07;;;;;;;7.60;0.93;;;16.30;55.30;;;;;;4947140;28;20409;-72
2023/05/21 05:40:35;;;;;;;1.15;0.68;;;16.60;55.10;;;;;;4950496;28;20039;-67
2023/05/21 05:43:02;;;;;;;2.28;0.55;;;16.60;53.70;;;;;;4954042;28;20126;-69
2023/05/21 05:45:29;;;;;;;4.88;0.60;;;16.50;54.40;;;;;;4953663;28;20031;-68
2023/05/21 05:47:57;;;;;;;2.25;0.40;;;16.50;54.30;;;;;;4958105;28;20039;-67
2023/05/21 05:50:25;;;;;;;0.52;0.50;;;16.40;54.50;;;;;;4958221;28;20084;-67
2023/05/21 05:52:52;;;;;;;0.40;0.40;;;16.40;54.60;;;;;;4956879;28;20054;-67
2023/05/21 05:55:20;;;;;;;0.95;0.68;;;16.40;54.70;;;;;;4950327;28;20036;-67
2023/05/21 05:57:48;;;;;;;2.28;0.40;;;16.40;54.70;;;;;;4949083;28;20047;-68
2023/05/21 06:00:16;;;;;;;0.73;0.50;;;16.40;54.10;;;;;;4933736;28;20039;-68
2023/05/21 06:02:43;;;;;;;3.03;0.43;;;16.40;54.30;;;;;;4933955;29;20445;-68
2023/05/21 06:05:11;;;;;;;1.35;0.63;;;16.40;54.10;;;;;;4919047;29;20559;-65
2023/05/21 06:07:38;;;;;;;2.25;0.70;;;16.40;54.20;;;;;;4956911;28;20058;-67
2023/05/21 06:10:07;;;;;;;0.90;0.40;;;16.40;54.20;;;;;;4916880;28;20050;-66
2023/05/21 06:12:34;;;;;;;1.08;0.30;;;16.40;54.30;;;;;;4933597;29;20114;-66
2023/05/21 06:15:02;;;;;;;0.40;0.35;;;16.40;54.50;;;;;;4934384;29;20027;-68
2023/05/21 06:17:30;;;;;;;1.55;0.52;;;16.40;54.60;;;;;;4951734;28;20074;-68
2023/05/21 06:19:57;;;;;;;1.38;0.60;;;16.40;54.60;;;;;;4948574;28;20078;-69
2023/05/21 06:22:25;;;;;;;0.63;0.63;;;16.30;54.60;;;;;;4958127;28;20035;-69
2023/05/21 06:24:52;;;;;;;0.50;0.50;;;16.30;54.80;;;;;;4947641;29;20035;-68
2023/05/21 06:27:20;;;;;;;3.95;0.70;;;16.30;55.00;;;;;;4943135;28;20044;-67
2023/05/21 06:29:47;;;;;;;1.70;0.60;;;16.30;54.80;;;;;;4944449;28;20048;-68
2023/05/21 06:32:14;;;;;;;1.08;0.60;;;16.30;54.70;;;;;;4946165;28;20051;-68
2023/05/21 06:34:42;;;;;;;1.17;0.60;;;16.20;54.80;;;;;;4948067;28;20405;-69
2023/05/21 06:37:10;;;;;;;1.95;0.85;;;16.20;54.50;;;;;;4945745;28;20074;-68
2023/05/21 06:39:37;;;;;;;2.88;0.88;;;16.20;54.50;;;;;;4942598;29;20031;-68
2023/05/21 06:42:05;;;;;;;0.50;0.47;;;16.20;54.40;;;;;;4950569;28;20042;-67
2023/05/21 06:44:32;;;;;;;0.70;0.70;;;16.20;54.70;;;;;;4951141;29;20115;-68
2023/05/21 06:47:00;;;;;;;0.68;0.47;;;16.10;54.80;;;;;;4950878;28;20039;-67
2023/05/21 06:49:27;;;;;;;1.70;0.60;;;16.10;54.90;;;;;;4953716;28;20061;-67
2023/05/21 06:51:55;;;;;;;2.90;0.63;;;16.10;54.90;;;;;;4965674;28;20043;-65
2023/05/21 06:54:22;;;;;;;1.20;0.60;;;16.10;54.60;;;;;;4950212;28;20043;-64
2023/05/21 06:56:50;;;;;;;0.90;0.70;;;16.00;54.90;;;;;;4952334;28;20066;-65
2023/05/21 06:59:17;;;;;;;2.30;0.60;;;16.00;54.90;;;;;;4950869;29;20090;-66
2023/05/21 07:01:44;;;;;;;1.08;0.77;;;16.00;54.70;;;;;;4935868;28;20028;-65
2023/05/21 07:04:12;;;;;;;1.20;0.60;;;15.90;54.80;;;;;;4952135;28;20396;-64
2023/05/21 07:06:39;;;;;;;2.22;0.95;;;15.90;54.70;;;;;;4949998;28;20039;-65
2023/05/21 07:09:07;;;;;;;1.33;0.80;;;15.90;54.90;;;;;;4950857;28;20047;-65
2023/05/21 07:11:35;;;;;;;2.45;0.77;;;15.80;54.80;;;;;;4933850;29;20085;-65
2023/05/21 07:14:02;;;;;;;2.33;0.80;;;15.80;55.00;;;;;;4950567;28;20035;-66
2023/05/21 07:16:30;;;;;;;7.50;1.00;;;15.80;55.30;;;;;;4932753;29;20118;-66
2023/05/21 07:18:57;;;;;;;1.40;1.00;;;15.80;55.10;;;;;;4950881;28;20569;-66
2023/05/21 07:21:25;;;;;;;1.98;1.20;;;15.80;55.10;;;;;;4949799;28;20053;-65
2023/05/21 07:23:52;;;;;;;5.13;1.00;;;15.80;55.10;;;;;;4951092;29;20035;-65
2023/05/21 11:17:43;;;;;;;2.80;1.27;;;14.40;63.30;;;;;;4946102;28;20858;-66
2023/05/21 11:20:15;;;;;;;2.30;1.10;;;14.40;63.30;;;;;;4952664;28;20047;-67
2023/05/21 11:22:42;;;;;;;2.92;1.00;;;14.40;63.40;;;;;;4960493;28;20092;-66
2023/05/21 11:25:11;;;;;;;1.48;1.00;;;14.40;63.40;;;;;;4957221;28;20039;-66
2023/05/21 11:27:42;;;;;;;2.22;1.00;;;14.40;63.50;;;;;;4947673;29;20050;-66
2023/05/21 11:30:10;;;;;;;4.35;1.35;;;14.40;63.50;;;;;;4940745;29;20490;-66
2023/05/21 11:33:01;;;;;;;1.33;0.93;;;14.40;63.70;;;;;;4957307;29;20039;-66
2023/05/21 11:35:28;;;;;;;2.40;1.13;;;14.40;64.20;;;;;;4949407;28;20455;-67
2023/05/21 11:37:56;;;;;;;0.93;0.75;;;14.40;63.70;;;;;;4957037;28;20038;-67
2023/05/21 11:40:29;;;;;;;3.35;1.00;;;14.40;63.80;;;;;;4969552;28;20058;-67
2023/05/21 11:42:56;;;;;;;1.52;0.77;;;14.40;63.90;;;;;;4961552;28;20039;-67
2023/05/21 11:45:30;;;;;;;4.82;1.20;;;14.40;64.00;;;;;;4968531;28;20566;-66
2023/05/21 11:47:57;;;;;;;1.65;1.00;;;14.40;64.20;;;;;;4940147;29;20093;-67
2023/05/21 11:50:25;;;;;;;1.83;0.93;;;14.40;64.10;;;;;;4956805;29;20044;-66
2023/05/21 11:52:52;;;;;;;1.45;1.10;;;14.40;64.20;;;;;;4940250;29;20070;-66
2023/05/21 11:55:24;;;;;;;1.42;0.90;;;14.40;64.00;;;;;;4956263;28;20038;-66
2023/05/21 11:57:54;;;;;;;1.83;0.77;;;14.40;64.00;;;;;;4939276;29;20375;-66
2023/05/21 12:00:21;;;;;;;2.63;0.90;;;14.30;64.40;;;;;;4955676;28;20050;-66
2023/05/21 12:02:52;;;;;;;2.38;0.88;;;14.30;64.40;;;;;;4956779;29;20031;-66
2023/05/21 12:05:20;;;;;;;2.17;1.10;;;14.30;64.60;;;;;;4956576;28;20478;-66
2023/05/21 12:07:48;;;;;;;1.67;0.90;;;14.30;64.30;;;;;;4973829;28;20089;-66
2023/05/21 12:10:16;;;;;;;1.52;0.73;;;14.30;64.20;;;;;;4974754;28;20039;-66
2023/05/21 12:12:44;;;;;;;1.50;0.70;;;14.30;64.30;;;;;;4937594;29;20122;-66
2023/05/21 12:15:12;;;;;;;1.00;0.77;;;14.30;64.20;;;;;;4933955;29;20501;-66
2023/05/21 12:17:39;;;;;;;1.45;1.00;;;14.30;64.30;;;;;;4939276;29;20043;-66
2023/05/21 12:20:09;;;;;;;1.83;0.88;;;14.30;64.20;;;;;;4923968;29;20039;-66
2023/05/21 12:22:42;;;;;;;3.33;0.90;;;14.30;64.10;;;;;;4958030;28;20032;-66
2023/05/21 12:25:10;;;;;;;1.10;0.73;;;14.30;64.10;;;;;;4939054;28;20517;-66
2023/05/21 12:27:38;;;;;;;2.03;0.80;;;14.30;64.00;;;;;;4955282;28;20062;-66
2023/05/21 12:30:07;;;;;;;2.10;0.98;;;14.30;63.90;;;;;;4956179;28;20046;-66
2023/05/21 12:32:36;;;;;;;1.40;0.70;;;14.30;64.00;;;;;;4939640;29;20043;-66
2023/05/21 12:35:04;;;;;;;2.38;1.02;;;14.30;64.00;;;;;;4955966;28;20031;-66
2023/05/21 12:37:34;;;;;;;3.00;1.00;;;14.30;64.00;;;;;;4955663;28;20039;-66
2023/05/21 12:40:06;;;;;;;1.98;0.95;;;14.30;64.00;;;;;;4968328;28;20082;-66
2023/05/21 12:42:34;;;;;;;1.48;1.00;;;14.30;64.20;;;;;;4975652;28;20037;-66
2023/05/21 12:45:08;;;;;;;2.00;1.05;;;14.20;64.30;;;;;;4969668;28;20038;-66
2023/05/21 12:47:35;;;;;;;1.30;1.05;;;14.20;64.40;;;;;;4951476;28;20039;-66
2023/05/21 12:50:12;;;;;;;1.95;1.13;;;14.20;64.60;;;;;;4962440;28;20041;-65
2023/05/21 12:52:43;;;;;;;2.95;1.20;;;14.10;64.80;;;;;;4936709;29;20095;-66
2023/05/21 12:55:14;;;;;;;3.70;1.20;;;14.10;65.00;;;;;;4920284;29;20062;-66
2023/05/21 12:57:42;;;;;;;2.83;1.23;;;14.00;65.00;;;;;;4904358;29;20040;-66
2023/05/21 13:00:10;;;;;;;1.50;1.20;;;14.00;65.10;;;;;;4937121;28;20038;-66
2023/05/21 13:02:41;;;;;;;2.13;1.20;;;14.00;65.20;;;;;;4937682;29;20437;-67
2023/05/21 13:05:10;;;;;;;2.13;1.15;;;14.00;65.50;;;;;;4957886;28;20063;-66
2023/05/21 13:07:38;;;;;;;5.90;1.60;;;14.00;65.60;;;;;;4955520;28;20405;-67
2023/05/21 13:10:06;;;;;;;2.08;1.10;;;13.90;65.60;;;;;;4934382;28;20043;-66
2023/05/21 13:12:34;;;;;;;3.15;1.20;;;14.00;66.00;;;;;;4938695;29;20519;-66
2023/05/21 13:15:02;;;;;;;2.70;1.20;;;13.90;66.10;;;;;;4954987;28;20031;-66
2023/05/21 13:17:29;;;;;;;3.10;1.38;;;13.80;66.00;;;;;;4934157;29;20039;-66
2023/05/21 13:20:17;;;;;;;3.97;1.25;;;13.80;66.20;;;;;;4955359;29;20083;-66
2023/05/21 13:22:48;;;;;;;2.75;1.25;;;13.80;66.20;;;;;;4955567;29;20039;-66
2023/05/21 13:25:28;;;;;;;2.33;1.27;;;13.80;66.40;;;;;;4954624;28;20114;-66
2023/05/21 13:27:56;;;;;;;2.53;1.27;;;13.80;66.40;;;;;;4954950;28;20490;-66
2023/05/21 13:30:24;;;;;;;1.70;0.98;;;13.80;66.30;;;;;;4954588;28;20054;-66
2023/05/21 13:32:51;;;;;;;3.63;1.10;;;13.70;66.40;;;;;;4965233;28;20039;-67
2023/05/21 13:35:19;;;;;;;4.00;1.17;;;13.70;66.50;;;;;;4974035;28;20038;-66
2023/05/21 13:37:46;;;;;;;2.78;1.20;;;13.70;66.40;;;;;;4965076;28;20394;-66
2023/05/21 13:40:14;;;;;;;3.10;1.20;;;13.70;66.50;;;;;;4921088;28;20054;-66
2023/05/21 13:42:45;;;;;;;2.33;1.20;;;13.70;66.40;;;;;;4937863;29;20035;-66
2023/05/21 13:45:15;;;;;;;1.35;0.90;;;13.70;66.60;;;;;;4954393;28;20045;-67
2023/05/21 13:47:43;;;;;;;2.72;1.25;;;13.70;66.50;;;;;;4954094;28;20065;-66
2023/05/21 13:50:10;;;;;;;2.28;1.20;;;13.70;66.70;;;;;;4954891;29;20039;-66
2023/05/21 13:52:38;;;;;;;3.42;1.10;;;13.70;66.60;;;;;;4945800;28;20482;-66
2023/05/21 13:55:06;;;;;;;3.22;0.98;;;13.70;66.70;;;;;;4957091;28;20445;-67
2023/05/21 13:57:33;;;;;;;3.42;1.27;;;13.70;66.70;;;;;;4974122;28;20042;-66
2023/05/21 14:00:01;;;;;;;2.20;1.10;;;13.70;66.70;;;;;;4967855;28;20035;-66
2023/05/21 14:02:28;;;;;;;2.25;1.08;;;13.70;66.80;;;;;;4974007;28;20117;-66
2023/05/21 14:04:56;;;;;;;3.10;1.23;;;13.70;66.80;;;;;;4966251;28;20032;-66
2023/05/21 14:07:23;;;;;;;1.58;1.00;;;13.60;66.80;;;;;;4954827;28;20035;-66
2023/05/21 14:09:51;;;;;;;2.40;0.95;;;13.70;66.80;;;;;;4953301;28;20122;-66
2023/05/21 14:12:18;;;;;;;2.17;0.90;;;13.60;67.00;;;;;;4959396;28;20046;-66
2023/05/21 14:14:48;;;;;;;2.50;0.80;;;13.60;66.90;;;;;;4963122;28;20652;-66
2023/05/21 14:17:15;;;;;;;1.38;0.88;;;13.60;66.90;;;;;;4954590;28;20110;-66
2023/05/21 14:19:43;;;;;;;1.77;0.93;;;13.60;66.90;;;;;;4953974;29;20130;-66
2023/05/21 14:22:10;;;;;;;0.73;0.70;;;13.60;66.90;;;;;;4954636;29;20098;-66
2023/05/21 14:24:38;;;;;;;2.85;1.08;;;13.60;66.90;;;;;;4953126;28;20039;-66
2023/05/21 14:27:05;;;;;;;3.00;1.00;;;13.60;66.90;;;;;;4953662;28;20031;-66
2023/05/21 14:29:32;;;;;;;3.80;1.00;;;13.60;66.90;;;;;;4963336;28;20548;-66
2023/05/21 14:32:00;;;;;;;2.00;1.00;;;13.60;66.90;;;;;;4960654;28;20047;-66
2023/05/21 14:34:27;;;;;;;2.03;0.68;;;13.60;67.00;;;;;;4954533;29;20035;-67
2023/05/21 14:36:55;;;;;;;1.35;0.80;;;13.60;67.00;;;;;;4937467;28;20042;-67
2023/05/21 14:39:22;;;;;;;2.08;0.90;;;13.60;67.00;;;;;;4936423;29;20099;-66
2023/05/21 14:41:50;;;;;;;4.30;1.00;;;13.60;66.90;;;;;;4953300;28;20489;-66
2023/05/21 14:44:17;;;;;;;4.28;0.95;;;13.60;67.10;;;;;;4954086;29;20094;-66
2023/05/21 14:46:44;;;;;;;2.28;1.00;;;13.60;67.20;;;;;;4953430;28;20131;-67
2023/05/21 14:49:13;;;;;;;1.98;0.88;;;13.50;67.20;;;;;;4953795;28;20037;-66
2023/05/21 14:51:42;;;;;;;2.45;1.00;;;13.50;67.30;;;;;;4954058;28;20043;-66
2023/05/21 14:54:09;;;;;;;1.77;0.80;;;13.50;67.40;;;;;;4956975;29;20371;-66
2023/05/21 14:56:37;;;;;;;4.50;0.82;;;13.50;67.30;;;;;;4959277;28;20043;-66
2023/05/21 14:59:04;;;;;;;2.80;0.90;;;13.40;67.40;;;;;;4957689;28;20479;-67
2023/05/21 15:01:32;;;;;;;3.67;1.08;;;13.40;67.60;;;;;;4958018;29;20061;-67
2023/05/21 15:04:01;;;;;;;2.80;0.88;;;13.30;67.60;;;;;;4940178;29;20082;-66
2023/05/21 15:06:28;;;;;;;1.67;0.70;;;13.30;67.70;;;;;;4957426;28;21122;-67
2023/05/21 15:08:56;;;;;;;3.90;0.90;;;13.30;68.00;;;;;;4957742;28;20035;-66
2023/05/21 15:11:23;;;;;;;3.55;1.05;;;13.30;68.00;;;;;;4957663;28;20039;-66
2023/05/21 15:13:51;;;;;;;3.90;1.00;;;13.30;68.10;;;;;;4957887;29;20028;-66
2023/05/21 15:16:18;;;;;;;1.02;0.80;;;13.20;68.10;;;;;;4959414;28;20106;-66
2023/05/21 15:18:45;;;;;;;3.10;1.40;;;13.20;68.20;;;;;;4957052;28;20047;-66
2023/05/21 15:21:13;;;;;;;2.85;1.00;;;13.20;68.40;;;;;;4939991;28;20536;-66
2023/05/21 15:23:40;;;;;;;4.78;0.93;;;13.20;68.40;;;;;;4957361;29;20114;-66
2023/05/21 15:26:08;;;;;;;1.63;0.82;;;13.20;68.50;;;;;;4956930;28;20167;-66
2023/05/21 15:28:35;;;;;;;1.08;0.75;;;13.20;68.60;;;;;;4957876;28;20404;-66
2023/05/21 15:31:03;;;;;;;3.63;0.80;;;13.20;68.60;;;;;;4957806;28;20046;-66
2023/05/21 15:33:30;;;;;;;1.13;0.77;;;13.20;68.70;;;;;;4963064;28;20027;-66
2023/05/21 15:35:58;;;;;;;1.75;0.90;;;13.10;68.70;;;;;;4957801;28;20039;-66
2023/05/21 15:38:25;;;;;;;1.33;0.80;;;13.10;68.70;;;;;;4946981;28;20035;-66
2023/05/21 15:40:52;;;;;;;2.75;0.80;;;13.10;68.70;;;;;;4976580;28;20039;-66
2023/05/21 15:43:20;;;;;;;1.42;0.73;;;13.10;68.90;;;;;;4964894;28;20031;-66
2023/05/21 15:45:47;;;;;;;4.00;1.00;;;13.10;68.80;;;;;;4939956;29;20102;-67
2023/05/21 15:48:21;;;;;;;1.58;0.88;;;13.10;68.90;;;;;;4956040;28;20035;-66
2023/05/21 15:50:49;;;;;;;2.72;1.15;;;13.00;69.00;;;;;;4940762;29;20125;-67
2023/05/21 15:53:16;;;;;;;1.45;0.70;;;13.00;69.10;;;;;;4962750;28;20109;-66
2023/05/21 15:55:44;;;;;;;1.77;0.80;;;13.00;69.10;;;;;;4976056;28;20513;-66
2023/05/21 15:58:11;;;;;;;2.35;0.95;;;12.90;69.20;;;;;;4954025;28;20054;-66
2023/05/21 16:00:39;;;;;;;3.95;1.00;;;12.90;69.40;;;;;;4957289;29;20030;-67
2023/05/21 16:03:06;;;;;;;2.33;1.08;;;12.80;69.40;;;;;;4923134;28;20106;-66
2023/05/21 16:05:34;;;;;;;2.25;0.85;;;12.80;69.40;;;;;;4956564;29;20047;-67
2023/05/21 16:08:01;;;;;;;3.42;0.98;;;12.80;69.70;;;;;;4956038;28;20084;-66
2023/05/21 16:10:29;;;;;;;2.05;0.95;;;12.80;69.60;;;;;;4956935;28;20094;-65
2023/05/21 16:12:56;;;;;;;1.92;0.80;;;12.80;69.60;;;;;;4936543;29;20036;-66
2023/05/21 16:15:24;;;;;;;2.15;0.90;;;12.80;69.80;;;;;;4937617;29;20035;-66
2023/05/21 16:17:51;;;;;;;3.67;0.90;;;12.70;70.10;;;;;;4950289;28;20113;-66
2023/05/21 16:20:20;;;;;;;2.70;0.82;;;12.70;69.90;;;;;;4956141;28;20039;-66
2023/05/21 16:22:47;;;;;;;1.65;0.93;;;12.70;70.30;;;;;;4956136;28;20047;-66
2023/05/21 16:25:15;;;;;;;1.88;0.90;;;12.70;70.10;;;;;;4956682;29;20043;-66
2023/05/21 16:27:42;;;;;;;3.47;1.00;;;12.70;70.30;;;;;;4938402;29;20042;-67
2023/05/21 16:30:10;;;;;;;3.78;0.93;;;12.70;70.30;;;;;;4955797;28;21850;-67
2023/05/21 16:32:38;;;;;;;1.73;0.95;;;12.70;70.40;;;;;;4975341;28;20385;-67
2023/05/21 16:35:06;;;;;;;2.25;0.90;;;12.60;70.50;;;;;;4975927;28;20031;-66
2023/05/21 16:37:34;;;;;;;3.80;1.20;;;12.60;70.60;;;;;;4966018;28;20042;-67
2023/05/21 16:40:01;;;;;;;2.25;0.90;;;12.60;70.60;;;;;;4956222;29;20520;-67
2023/05/21 16:42:29;;;;;;;1.05;0.95;;;12.60;70.50;;;;;;4955610;28;20043;-67
2023/05/21 16:44:56;;;;;;;2.97;1.10;;;12.60;70.50;;;;;;4956049;29;20039;-67
2023/05/21 16:47:24;;;;;;;2.25;1.10;;;12.50;70.50;;;;;;4937865;28;20038;-66
2023/05/21 16:49:52;;;;;;;1.42;0.80;;;12.50;70.80;;;;;;4937133;29;20036;-67
2023/05/21 16:52:19;;;;;;;2.40;1.02;;;12.50;70.80;;;;;;4973776;28;20047;-67
2023/05/21 16:54:47;;;;;;;1.48;0.90;;;12.50;70.90;;;;;;4958558;28;20074;-66
2023/05/21 16:57:15;;;;;;;2.38;1.00;;;12.50;71.00;;;;;;4955259;28;20052;-67
2023/05/21 16:59:43;;;;;;;2.33;1.00;;;12.40;71.00;;;;;;4956131;29;20559;-67
2023/05/21 17:02:12;;;;;;;2.17;0.95;;;12.40;71.10;;;;;;4959579;28;20050;-66
2023/05/21 17:04:39;;;;;;;2.92;0.88;;;12.40;71.20;;;;;;4938793;29;20039;-69
2023/05/21 17:07:07;;;;;;;1.05;0.73;;;12.40;71.20;;;;;;4969206;28;20062;-67
2023/05/21 17:09:34;;;;;;;5.82;1.10;;;12.30;71.20;;;;;;4973919;28;20085;-66
2023/05/21 17:12:02;;;;;;;2.50;1.13;;;12.30;71.50;;;;;;4939062;28;20047;-66
2023/05/21 17:14:29;;;;;;;1.85;1.00;;;12.30;71.60;;;;;;4938477;28;20027;-67
2023/05/21 17:16:57;;;;;;;2.08;1.05;;;12.30;71.60;;;;;;4954999;28;20042;-66
2023/05/21 17:19:24;;;;;;;3.03;1.10;;;12.30;71.60;;;;;;4955519;28;20051;-66
2023/05/21 17:21:54;;;;;;;2.58;0.98;;;12.30;71.60;;;;;;4954257;28;20043;-66
2023/05/21 17:24:21;;;;;;;2.92;1.10;;;12.20;71.80;;;;;;4954210;28;20086;-66
2023/05/21 17:26:48;;;;;;;4.85;1.10;;;12.20;71.80;;;;;;4958017;28;20118;-66
2023/05/21 17:29:16;;;;;;;1.85;0.90;;;12.20;71.80;;;;;;4974473;28;20026;-66
2023/05/21 17:31:43;;;;;;;2.03;1.08;;;12.20;71.90;;;;;;4938561;28;20150;-66
2023/05/21 17:34:11;;;;;;;4.53;0.90;;;12.20;72.00;;;;;;4938233;29;20042;-66
2023/05/21 17:36:38;;;;;;;2.45;0.90;;;12.20;72.10;;;;;;4938190;29;20039;-66
2023/05/21 17:39:05;;;;;;;4.43;0.95;;;12.10;72.30;;;;;;4937574;29;20050;-67
2023/05/21 17:41:33;;;;;;;2.72;0.90;;;12.10;72.70;;;;;;4954257;28;20390;-67
2023/05/21 17:44:00;;;;;;;2.30;0.93;;;12.00;72.70;;;;;;4938540;28;20027;-66
2023/05/21 17:46:28;;;;;;;3.63;1.05;;;12.10;72.60;;;;;;4955312;29;20063;-67
2023/05/21 17:48:55;;;;;;;1.63;0.93;;;12.00;73.00;;;;;;4955178;28;20114;-67
2023/05/21 17:51:22;;;;;;;2.33;1.10;;;12.00;72.80;;;;;;4954333;28;20043;-67
2023/05/21 17:53:50;;;;;;;2.03;1.00;;;12.10;72.70;;;;;;4954328;28;20385;-67
2023/05/21 17:56:17;;;;;;;1.23;0.82;;;12.00;72.80;;;;;;4954910;29;20066;-66
2023/05/21 17:58:45;;;;;;;2.05;0.88;;;12.00;73.00;;;;;;4953798;28;20089;-66
2023/05/21 18:01:12;;;;;;;5.28;1.20;;;11.90;73.10;;;;;;4954329;28;20035;-67
2023/05/21 18:03:40;;;;;;;3.03;0.90;;;11.90;73.20;;;;;;4923016;29;20040;-66
2023/05/21 18:06:07;;;;;;;0.80;0.70;;;11.90;73.50;;;;;;4967797;28;20400;-66
2023/05/21 18:08:35;;;;;;;1.90;0.80;;;11.80;73.90;;;;;;4973867;28;20532;-66
2023/05/21 18:11:02;;;;;;;3.97;1.20;;;11.80;73.50;;;;;;4956487;28;20059;-67
2023/05/21 18:13:30;;;;;;;2.38;1.02;;;11.80;73.80;;;;;;4953767;28;20507;-67
2023/05/21 18:15:58;;;;;;;4.97;0.90;;;11.80;73.40;;;;;;4954590;29;20051;-67
2023/05/21 18:18:25;;;;;;;2.90;1.08;;;11.70;73.40;;;;;;4954199;28;20039;-66
2023/05/21 18:20:53;;;;;;;2.95;0.90;;;11.70;73.60;;;;;;4954597;29;20522;-66
2023/05/21 18:23:20;;;;;;;2.50;0.90;;;11.70;73.90;;;;;;4953836;28;20490;-66
2023/05/21 18:25:48;;;;;;;1.60;0.95;;;11.70;73.90;;;;;;4968332;28;20046;-67
2023/05/21 18:28:15;;;;;;;1.83;1.00;;;11.70;74.20;;;;;;4954184;28;20427;-67
2023/05/21 18:30:43;;;;;;;3.15;1.25;;;11.70;74.20;;;;;;4954006;28;20135;-66
2023/05/21 18:33:11;;;;;;;3.67;1.10;;;11.60;74.90;;;;;;4964342;28;20062;-66
2023/05/21 18:35:38;;;;;;;4.43;1.35;;;11.50;75.50;;;;;;4956062;28;20050;-66
2023/05/21 18:38:08;;;;;;;3.30;1.30;;;11.40;75.70;;;;;;4954448;29;20031;-66
2023/05/21 18:40:36;;;;;;;3.03;1.23;;;11.30;76.40;;;;;;4954299;29;20078;-66
2023/05/21 18:43:05;;;;;;;4.72;1.60;;;11.30;76.60;;;;;;4939263;28;20042;-66
2023/05/21 18:45:35;;;;;;;4.05;1.70;;;11.20;76.80;;;;;;4965346;28;20494;-66
2023/05/21 18:48:02;;;;;;;4.43;1.75;;;11.20;77.10;;;;;;4953955;28;20198;-66
2023/05/21 18:50:31;;;;;;;5.53;1.63;;;11.10;77.20;;;;;;4953443;28;20065;-66
2023/05/21 18:52:58;;;;;;;2.28;1.40;;;11.10;77.30;;;;;;4953074;28;20043;-66
2023/05/21 18:55:26;;;;;;;4.70;1.98;;;11.00;77.30;;;;;;4953391;29;20043;-66
2023/05/21 18:57:54;;;;;;;4.00;1.85;;;10.90;77.40;;;;;;4953834;28;20039;-66
2023/05/21 19:00:22;;;;;;;4.65;1.83;;;10.90;77.60;;;;;;4954156;28;20043;-66
2023/05/21 19:02:49;;;;;;;3.33;1.75;;;10.80;78.00;;;;;;4961022;28;20506;-68
2023/05/21 19:05:16;;;;;;;3.60;1.60;;;10.80;78.10;;;;;;4936987;29;20038;-66
2023/05/21 19:07:44;;;;;;;3.55;1.67;;;10.80;78.10;;;;;;4953959;28;20043;-66
2023/05/21 19:10:11;;;;;;;4.53;2.08;;;10.80;78.10;;;;;;4953162;28;20047;-66
2023/05/21 19:12:40;;;;;;;5.88;1.80;;;10.80;78.20;;;;;;4953252;28;20047;-67
2023/05/21 19:15:08;;;;;;;3.72;1.48;;;10.80;78.20;;;;;;4936717;29;20118;-66
2023/05/21 19:17:37;;;;;;;4.68;1.70;;;10.70;78.40;;;;;;4953120;28;20038;-66
2023/05/21 19:20:06;;;;;;;4.10;1.70;;;10.70;78.50;;;;;;4934639;29;20406;-66
2023/05/21 19:22:35;;;;;;;6.75;1.83;;;10.70;78.80;;;;;;4941046;28;20035;-67
2023/05/21 19:25:03;;;;;;;4.75;1.73;;;10.70;78.50;;;;;;4950273;28;20627;-68
2023/05/21 19:27:30;;;;;;;3.13;1.60;;;10.60;78.80;;;;;;4947008;29;20529;-65
2023/05/21 19:29:58;;;;;;;3.25;1.70;;;10.60;78.60;;;;;;4953040;28;20067;-67
2023/05/21 19:32:25;;;;;;;3.20;1.85;;;10.60;78.40;;;;;;4943945;28;20043;-65
2023/05/21 19:34:53;;;;;;;4.65;2.10;;;10.60;78.60;;;;;;4947854;28;20031;-65
2023/05/21 19:37:20;;;;;;;2.22;1.70;;;10.60;78.50;;;;;;4953171;29;20070;-65
2023/05/21 19:39:48;;;;;;;5.53;2.03;;;10.60;78.60;;;;;;4951714;28;20114;-64
2023/05/21 19:42:16;;;;;;;4.35;1.80;;;10.60;78.30;;;;;;4940969;28;20549;-65